sensor_id;sensor_type;location;lat;lon;timestamp;temperature;humidity
11744;DHT22;5929;51.906;7.674;2023-06-14T00:01:41;19.10;61.40
11744;DHT22;5929;51.906;7.674;2023-06-14T00:04:11;19.00;61.40
11744;DHT22;5929;51.906;7.674;2023-06-14T00:06:38;18.90;61.70
11744;DHT22;5929;51.906;7.674;2023-06-14T00:09:07;18.90;61.60
11744;DHT22;5929;51.906;7.674;2023-06-14T00:11:34;19.00;61.70
11744;DHT22;5929;51.906;7.674;2023-06-14T00:14:01;18.90;61.50
11744;DHT22;5929;51.906;7.674;2023-06-14T00:16:30;18.70;61.90
11744;DHT22;5929;51.906;7.674;2023-06-14T00:18:58;18.60;62.40
11744;DHT22;5929;51.906;7.674;2023-06-14T00:21:25;18.50;62.60
11744;DHT22;5929;51.906;7.674;2023-06-14T00:23:55;18.40;62.90
11744;DHT22;5929;51.906;7.674;2023-06-14T00:26:31;18.50;63.50
11744;DHT22;5929;51.906;7.674;2023-06-14T00:28:57;18.30;63.30
11744;DHT22;5929;51.906;7.674;2023-06-14T00:31:24;18.30;63.30
11744;DHT22;5929;51.906;7.674;2023-06-14T00:33:52;18.30;63.40
11744;DHT22;5929;51.906;7.674;2023-06-14T00:36:19;18.30;63.30
11744;DHT22;5929;51.906;7.674;2023-06-14T00:38:46;18.20;63.60
11744;DHT22;5929;51.906;7.674;2023-06-14T00:41:13;18.30;63.90
11744;DHT22;5929;51.906;7.674;2023-06-14T00:43:40;18.10;64.40
11744;DHT22;5929;51.906;7.674;2023-06-14T00:46:06;18.10;64.30
11744;DHT22;5929;51.906;7.674;2023-06-14T00:48:33;18.00;64.60
11744;DHT22;5929;51.906;7.674;2023-06-14T00:51:02;18.00;64.50
11744;DHT22;5929;51.906;7.674;2023-06-14T00:53:30;18.00;64.90
11744;DHT22;5929;51.906;7.674;2023-06-14T00:56:00;17.90;64.80
11744;DHT22;5929;51.906;7.674;2023-06-14T00:58:27;17.90;65.30
11744;DHT22;5929;51.906;7.674;2023-06-14T01:00:54;17.80;65.10
11744;DHT22;5929;51.906;7.674;2023-06-14T01:03:21;17.70;65.50
11744;DHT22;5929;51.906;7.674;2023-06-14T01:05:51;17.60;65.70
11744;DHT22;5929;51.906;7.674;2023-06-14T01:08:27;17.60;66.00
11744;DHT22;5929;51.906;7.674;2023-06-14T01:11:00;17.50;65.80
11744;DHT22;5929;51.906;7.674;2023-06-14T01:13:33;17.60;65.80
11744;DHT22;5929;51.906;7.674;2023-06-14T01:16:01;17.60;65.80
11744;DHT22;5929;51.906;7.674;2023-06-14T01:18:29;17.70;65.90
11744;DHT22;5929;51.906;7.674;2023-06-14T01:20:56;17.70;65.80
11744;DHT22;5929;51.906;7.674;2023-06-14T01:23:25;17.50;66.10
11744;DHT22;5929;51.906;7.674;2023-06-14T01:25:58;17.50;66.10
11744;DHT22;5929;51.906;7.674;2023-06-14T01:28:28;17.60;66.30
11744;DHT22;5929;51.906;7.674;2023-06-14T01:31:00;17.60;66.30
11744;DHT22;5929;51.906;7.674;2023-06-14T01:33:31;17.50;66.40
11744;DHT22;5929;51.906;7.674;2023-06-14T01:35:59;17.40;66.90
11744;DHT22;5929;51.906;7.674;2023-06-14T01:38:30;17.30;67.00
11744;DHT22;5929;51.906;7.674;2023-06-14T01:40:58;17.30;66.90
11744;DHT22;5929;51.906;7.674;2023-06-14T01:43:30;17.30;66.80
11744;DHT22;5929;51.906;7.674;2023-06-14T01:45:57;17.30;67.00
11744;DHT22;5929;51.906;7.674;2023-06-14T01:48:26;17.30;67.20
11744;DHT22;5929;51.906;7.674;2023-06-14T01:50:53;17.10;68.00
11744;DHT22;5929;51.906;7.674;2023-06-14T01:53:19;17.10;67.70
11744;DHT22;5929;51.906;7.674;2023-06-14T01:55:50;17.00;67.80
11744;DHT22;5929;51.906;7.674;2023-06-14T01:58:20;16.90;68.30
11744;DHT22;5929;51.906;7.674;2023-06-14T02:00:46;16.80;68.60
11744;DHT22;5929;51.906;7.674;2023-06-14T02:03:13;16.70;69.00
11744;DHT22;5929;51.906;7.674;2023-06-14T02:05:40;16.70;68.90
11744;DHT22;5929;51.906;7.674;2023-06-14T02:08:07;16.70;68.90
11744;DHT22;5929;51.906;7.674;2023-06-14T02:10:34;16.70;68.60
11744;DHT22;5929;51.906;7.674;2023-06-14T02:13:02;16.70;69.00
11744;DHT22;5929;51.906;7.674;2023-06-14T02:15:29;16.60;69.30
11744;DHT22;5929;51.906;7.674;2023-06-14T02:17:59;16.60;69.50
11744;DHT22;5929;51.906;7.674;2023-06-14T02:20:27;16.60;69.10
11744;DHT22;5929;51.906;7.674;2023-06-14T02:22:54;16.60;69.40
11744;DHT22;5929;51.906;7.674;2023-06-14T02:25:21;16.60;70.20
11744;DHT22;5929;51.906;7.674;2023-06-14T02:27:48;16.50;70.60
11744;DHT22;5929;51.906;7.674;2023-06-14T02:30:16;16.50;70.00
11744;DHT22;5929;51.906;7.674;2023-06-14T02:32:42;16.40;69.80
11744;DHT22;5929;51.906;7.674;2023-06-14T02:35:09;16.40;70.10
11744;DHT22;5929;51.906;7.674;2023-06-14T02:37:36;16.40;70.20
11744;DHT22;5929;51.906;7.674;2023-06-14T02:40:06;16.50;70.00
11744;DHT22;5929;51.906;7.674;2023-06-14T02:42:34;16.30;70.60
11744;DHT22;5929;51.906;7.674;2023-06-14T02:45:01;16.20;70.80
11744;DHT22;5929;51.906;7.674;2023-06-14T02:47:30;16.20;70.70
11744;DHT22;5929;51.906;7.674;2023-06-14T02:49:57;16.10;71.60
11744;DHT22;5929;51.906;7.674;2023-06-14T02:52:24;16.00;72.20
11744;DHT22;5929;51.906;7.674;2023-06-14T02:54:51;16.00;72.00
11744;DHT22;5929;51.906;7.674;2023-06-14T02:57:19;16.00;71.80
11744;DHT22;5929;51.906;7.674;2023-06-14T02:59:46;15.90;72.00
11744;DHT22;5929;51.906;7.674;2023-06-14T03:02:13;16.00;72.50
11744;DHT22;5929;51.906;7.674;2023-06-14T03:04:41;15.90;72.50
11744;DHT22;5929;51.906;7.674;2023-06-14T03:07:10;15.80;72.30
11744;DHT22;5929;51.906;7.674;2023-06-14T03:09:39;15.90;72.40
11744;DHT22;5929;51.906;7.674;2023-06-14T03:12:07;15.80;72.50
11744;DHT22;5929;51.906;7.674;2023-06-14T03:14:35;15.80;72.60
11744;DHT22;5929;51.906;7.674;2023-06-14T03:17:02;15.80;72.60
11744;DHT22;5929;51.906;7.674;2023-06-14T03:19:30;15.80;73.20
11744;DHT22;5929;51.906;7.674;2023-06-14T03:21:58;15.80;72.70
11744;DHT22;5929;51.906;7.674;2023-06-14T03:24:25;15.80;72.60
11744;DHT22;5929;51.906;7.674;2023-06-14T03:26:54;15.80;73.30
11744;DHT22;5929;51.906;7.674;2023-06-14T03:29:24;15.70;74.10
11744;DHT22;5929;51.906;7.674;2023-06-14T03:31:58;15.70;73.60
11744;DHT22;5929;51.906;7.674;2023-06-14T03:34:25;15.60;74.20
11744;DHT22;5929;51.906;7.674;2023-06-14T03:36:52;15.50;74.40
11744;DHT22;5929;51.906;7.674;2023-06-14T03:39:21;15.50;74.60
11744;DHT22;5929;51.906;7.674;2023-06-14T03:41:48;15.50;74.80
11744;DHT22;5929;51.906;7.674;2023-06-14T03:44:16;15.50;73.90
11744;DHT22;5929;51.906;7.674;2023-06-14T03:46:44;15.60;73.80
11744;DHT22;5929;51.906;7.674;2023-06-14T03:49:11;15.60;74.10
11744;DHT22;5929;51.906;7.674;2023-06-14T03:51:38;15.70;74.40
11744;DHT22;5929;51.906;7.674;2023-06-14T03:54:08;15.70;75.50
11744;DHT22;5929;51.906;7.674;2023-06-14T03:56:36;15.60;74.50
11744;DHT22;5929;51.906;7.674;2023-06-14T03:59:03;15.60;73.90
11744;DHT22;5929;51.906;7.674;2023-06-14T04:01:30;15.60;74.40
11744;DHT22;5929;51.906;7.674;2023-06-14T04:03:59;15.50;74.80
11744;DHT22;5929;51.906;7.674;2023-06-14T04:06:26;15.50;75.20
11744;DHT22;5929;51.906;7.674;2023-06-14T04:08:58;15.60;75.60
11744;DHT22;5929;51.906;7.674;2023-06-14T04:11:28;15.60;75.80
11744;DHT22;5929;51.906;7.674;2023-06-14T04:13:56;15.60;76.00
11744;DHT22;5929;51.906;7.674;2023-06-14T04:16:26;15.60;76.40
11744;DHT22;5929;51.906;7.674;2023-06-14T04:18:54;15.60;77.00
11744;DHT22;5929;51.906;7.674;2023-06-14T04:21:21;15.70;76.50
11744;DHT22;5929;51.906;7.674;2023-06-14T04:23:49;15.70;76.40
11744;DHT22;5929;51.906;7.674;2023-06-14T04:26:18;15.80;76.50
11744;DHT22;5929;51.906;7.674;2023-06-14T04:28:46;15.80;76.70
11744;DHT22;5929;51.906;7.674;2023-06-14T04:31:14;15.90;76.30
11744;DHT22;5929;51.906;7.674;2023-06-14T04:33:42;16.00;77.30
11744;DHT22;5929;51.906;7.674;2023-06-14T04:36:11;16.10;76.60
11744;DHT22;5929;51.906;7.674;2023-06-14T04:38:38;16.20;75.80
11744;DHT22;5929;51.906;7.674;2023-06-14T04:41:06;16.30;75.90
11744;DHT22;5929;51.906;7.674;2023-06-14T04:43:37;16.40;76.10
11744;DHT22;5929;51.906;7.674;2023-06-14T04:46:04;16.50;75.20
11744;DHT22;5929;51.906;7.674;2023-06-14T04:48:39;16.50;75.20
11744;DHT22;5929;51.906;7.674;2023-06-14T04:51:09;16.60;75.00
11744;DHT22;5929;51.906;7.674;2023-06-14T04:53:36;16.70;75.30
11744;DHT22;5929;51.906;7.674;2023-06-14T04:56:03;16.80;75.10
11744;DHT22;5929;51.906;7.674;2023-06-14T04:58:30;16.90;74.50
11744;DHT22;5929;51.906;7.674;2023-06-14T05:00:58;17.00;74.60
11744;DHT22;5929;51.906;7.674;2023-06-14T05:03:25;17.00;74.40
11744;DHT22;5929;51.906;7.674;2023-06-14T05:05:53;17.10;75.00
11744;DHT22;5929;51.906;7.674;2023-06-14T05:08:20;17.10;74.30
11744;DHT22;5929;51.906;7.674;2023-06-14T05:10:51;17.10;74.50
11744;DHT22;5929;51.906;7.674;2023-06-14T05:13:18;17.20;74.50
11744;DHT22;5929;51.906;7.674;2023-06-14T05:15:46;17.20;74.00
11744;DHT22;5929;51.906;7.674;2023-06-14T05:18:13;17.30;73.80
11744;DHT22;5929;51.906;7.674;2023-06-14T05:20:41;17.30;73.90
11744;DHT22;5929;51.906;7.674;2023-06-14T05:23:09;17.40;74.10
11744;DHT22;5929;51.906;7.674;2023-06-14T05:25:41;17.50;74.60
11744;DHT22;5929;51.906;7.674;2023-06-14T05:28:08;17.50;74.00
11744;DHT22;5929;51.906;7.674;2023-06-14T05:30:35;17.60;74.10
11744;DHT22;5929;51.906;7.674;2023-06-14T05:33:02;17.60;74.70
11744;DHT22;5929;51.906;7.674;2023-06-14T05:35:29;17.60;73.60
11744;DHT22;5929;51.906;7.674;2023-06-14T05:37:56;17.70;74.20
11744;DHT22;5929;51.906;7.674;2023-06-14T05:40:24;17.70;75.20
11744;DHT22;5929;51.906;7.674;2023-06-14T05:42:51;17.70;74.00
11744;DHT22;5929;51.906;7.674;2023-06-14T05:45:18;17.80;73.90
11744;DHT22;5929;51.906;7.674;2023-06-14T05:47:45;17.90;74.40
11744;DHT22;5929;51.906;7.674;2023-06-14T05:50:12;17.90;74.80
11744;DHT22;5929;51.906;7.674;2023-06-14T05:52:38;17.90;73.90
11744;DHT22;5929;51.906;7.674;2023-06-14T05:55:06;18.00;74.80
11744;DHT22;5929;51.906;7.674;2023-06-14T05:57:34;18.10;73.60
11744;DHT22;5929;51.906;7.674;2023-06-14T06:00:01;18.10;72.60
11744;DHT22;5929;51.906;7.674;2023-06-14T06:02:31;18.20;72.70
11744;DHT22;5929;51.906;7.674;2023-06-14T06:05:00;18.20;73.00
11744;DHT22;5929;51.906;7.674;2023-06-14T06:07:28;18.20;72.90
11744;DHT22;5929;51.906;7.674;2023-06-14T06:09:54;18.30;73.00
11744;DHT22;5929;51.906;7.674;2023-06-14T06:12:21;18.30;72.60
11744;DHT22;5929;51.906;7.674;2023-06-14T06:14:49;18.40;73.40
11744;DHT22;5929;51.906;7.674;2023-06-14T06:17:16;18.40;72.90
11744;DHT22;5929;51.906;7.674;2023-06-14T06:19:43;18.50;72.40
11744;DHT22;5929;51.906;7.674;2023-06-14T06:22:10;18.50;72.30
11744;DHT22;5929;51.906;7.674;2023-06-14T06:24:36;18.50;71.60
11744;DHT22;5929;51.906;7.674;2023-06-14T06:27:06;18.60;72.40
11744;DHT22;5929;51.906;7.674;2023-06-14T06:29:33;18.60;73.10
11744;DHT22;5929;51.906;7.674;2023-06-14T06:32:02;18.70;72.80
11744;DHT22;5929;51.906;7.674;2023-06-14T06:34:29;18.70;72.20
11744;DHT22;5929;51.906;7.674;2023-06-14T06:36:56;18.80;72.30
11744;DHT22;5929;51.906;7.674;2023-06-14T06:39:22;18.80;71.30
11744;DHT22;5929;51.906;7.674;2023-06-14T06:41:49;18.80;71.90
11744;DHT22;5929;51.906;7.674;2023-06-14T06:44:16;18.90;71.80
11744;DHT22;5929;51.906;7.674;2023-06-14T06:46:43;18.90;71.50
11744;DHT22;5929;51.906;7.674;2023-06-14T06:49:11;18.90;71.30
11744;DHT22;5929;51.906;7.674;2023-06-14T06:51:40;18.90;71.00
11744;DHT22;5929;51.906;7.674;2023-06-14T06:54:08;18.90;70.90
11744;DHT22;5929;51.906;7.674;2023-06-14T06:56:35;19.00;70.80
11744;DHT22;5929;51.906;7.674;2023-06-14T06:59:02;19.00;70.20
11744;DHT22;5929;51.906;7.674;2023-06-14T07:01:29;19.00;70.20
11744;DHT22;5929;51.906;7.674;2023-06-14T07:03:56;18.90;69.60
11744;DHT22;5929;51.906;7.674;2023-06-14T07:06:24;19.00;69.50
11744;DHT22;5929;51.906;7.674;2023-06-14T07:08:52;19.10;69.00
11744;DHT22;5929;51.906;7.674;2023-06-14T07:11:19;19.00;68.20
11744;DHT22;5929;51.906;7.674;2023-06-14T07:13:49;19.10;68.00
11744;DHT22;5929;51.906;7.674;2023-06-14T07:16:16;19.10;67.10
11744;DHT22;5929;51.906;7.674;2023-06-14T07:18:42;19.20;66.00
11744;DHT22;5929;51.906;7.674;2023-06-14T07:21:09;19.20;66.00
11744;DHT22;5929;51.906;7.674;2023-06-14T07:23:37;19.20;65.50
11744;DHT22;5929;51.906;7.674;2023-06-14T07:26:04;19.30;65.00
11744;DHT22;5929;51.906;7.674;2023-06-14T07:28:31;19.30;64.80
11744;DHT22;5929;51.906;7.674;2023-06-14T07:30:58;19.30;65.30
11744;DHT22;5929;51.906;7.674;2023-06-14T07:33:25;19.30;65.00
11744;DHT22;5929;51.906;7.674;2023-06-14T07:35:51;19.40;65.60
11744;DHT22;5929;51.906;7.674;2023-06-14T07:38:19;19.40;65.40
11744;DHT22;5929;51.906;7.674;2023-06-14T07:40:47;19.40;65.70
11744;DHT22;5929;51.906;7.674;2023-06-14T07:43:14;19.50;65.70
11744;DHT22;5929;51.906;7.674;2023-06-14T07:45:44;19.50;65.10
11744;DHT22;5929;51.906;7.674;2023-06-14T07:48:11;19.60;65.60
11744;DHT22;5929;51.906;7.674;2023-06-14T07:50:38;19.60;65.60
11744;DHT22;5929;51.906;7.674;2023-06-14T07:53:05;19.70;65.90
11744;DHT22;5929;51.906;7.674;2023-06-14T07:55:32;19.80;66.40
11744;DHT22;5929;51.906;7.674;2023-06-14T07:58:03;19.80;65.80
11744;DHT22;5929;51.906;7.674;2023-06-14T08:00:30;19.70;65.40
11744;DHT22;5929;51.906;7.674;2023-06-14T08:02:57;19.70;65.10
11744;DHT22;5929;51.906;7.674;2023-06-14T08:05:25;19.70;65.50
11744;DHT22;5929;51.906;7.674;2023-06-14T08:07:52;19.70;64.80
11744;DHT22;5929;51.906;7.674;2023-06-14T08:10:19;19.70;65.10
11744;DHT22;5929;51.906;7.674;2023-06-14T08:12:46;19.80;65.20
11744;DHT22;5929;51.906;7.674;2023-06-14T08:15:15;19.80;65.50
11744;DHT22;5929;51.906;7.674;2023-06-14T08:17:42;19.80;66.00
11744;DHT22;5929;51.906;7.674;2023-06-14T08:20:10;19.90;65.40
11744;DHT22;5929;51.906;7.674;2023-06-14T08:22:37;19.90;64.10
11744;DHT22;5929;51.906;7.674;2023-06-14T08:25:05;19.90;64.30
11744;DHT22;5929;51.906;7.674;2023-06-14T08:27:32;20.00;65.40
11744;DHT22;5929;51.906;7.674;2023-06-14T08:29:59;19.90;64.30
11744;DHT22;5929;51.906;7.674;2023-06-14T08:32:29;19.90;64.70
11744;DHT22;5929;51.906;7.674;2023-06-14T08:34:58;20.00;64.60
11744;DHT22;5929;51.906;7.674;2023-06-14T08:37:25;20.00;63.20
11744;DHT22;5929;51.906;7.674;2023-06-14T08:39:52;19.90;63.80
11744;DHT22;5929;51.906;7.674;2023-06-14T08:42:21;19.90;62.70
11744;DHT22;5929;51.906;7.674;2023-06-14T08:44:50;19.90;63.10
11744;DHT22;5929;51.906;7.674;2023-06-14T08:47:17;19.80;62.10
11744;DHT22;5929;51.906;7.674;2023-06-14T08:49:48;19.80;61.60
11744;DHT22;5929;51.906;7.674;2023-06-14T08:52:16;19.90;62.30
11744;DHT22;5929;51.906;7.674;2023-06-14T08:54:46;20.00;62.10
11744;DHT22;5929;51.906;7.674;2023-06-14T08:57:14;20.00;62.00
11744;DHT22;5929;51.906;7.674;2023-06-14T08:59:46;20.10;62.10
11744;DHT22;5929;51.906;7.674;2023-06-14T09:02:15;20.20;63.30
11744;DHT22;5929;51.906;7.674;2023-06-14T09:04:43;20.30;62.80
11744;DHT22;5929;51.906;7.674;2023-06-14T09:07:12;20.30;63.60
11744;DHT22;5929;51.906;7.674;2023-06-14T09:09:39;20.50;62.20
11744;DHT22;5929;51.906;7.674;2023-06-14T09:12:10;20.40;62.00
11744;DHT22;5929;51.906;7.674;2023-06-14T09:14:38;20.40;62.80
11744;DHT22;5929;51.906;7.674;2023-06-14T09:17:07;20.50;62.90
11744;DHT22;5929;51.906;7.674;2023-06-14T09:19:34;20.50;62.60
11744;DHT22;5929;51.906;7.674;2023-06-14T09:22:03;20.60;62.50
11744;DHT22;5929;51.906;7.674;2023-06-14T09:24:32;20.60;63.20
11744;DHT22;5929;51.906;7.674;2023-06-14T09:26:58;20.60;62.70
11744;DHT22;5929;51.906;7.674;2023-06-14T09:29:25;20.50;62.20
11744;DHT22;5929;51.906;7.674;2023-06-14T09:31:53;20.50;63.40
11744;DHT22;5929;51.906;7.674;2023-06-14T09:34:21;20.60;63.10
11744;DHT22;5929;51.906;7.674;2023-06-14T09:36:49;20.70;62.90
11744;DHT22;5929;51.906;7.674;2023-06-14T09:39:18;20.80;63.00
11744;DHT22;5929;51.906;7.674;2023-06-14T09:41:46;20.70;62.50
11744;DHT22;5929;51.906;7.674;2023-06-14T09:44:12;20.60;63.50
11744;DHT22;5929;51.906;7.674;2023-06-14T09:46:42;20.70;63.50
11744;DHT22;5929;51.906;7.674;2023-06-14T09:49:08;21.00;63.70
11744;DHT22;5929;51.906;7.674;2023-06-14T09:51:42;21.10;64.20
11744;DHT22;5929;51.906;7.674;2023-06-14T09:54:15;21.20;63.30
11744;DHT22;5929;51.906;7.674;2023-06-14T09:56:45;21.10;64.10
11744;DHT22;5929;51.906;7.674;2023-06-14T09:59:18;21.10;63.50
11744;DHT22;5929;51.906;7.674;2023-06-14T10:01:46;21.10;63.60
11744;DHT22;5929;51.906;7.674;2023-06-14T10:04:14;21.20;63.50
11744;DHT22;5929;51.906;7.674;2023-06-14T10:06:45;21.20;62.60
11744;DHT22;5929;51.906;7.674;2023-06-14T10:09:12;21.20;62.80
11744;DHT22;5929;51.906;7.674;2023-06-14T10:11:40;21.30;63.40
11744;DHT22;5929;51.906;7.674;2023-06-14T10:14:12;21.50;63.80
11744;DHT22;5929;51.906;7.674;2023-06-14T10:16:45;21.50;63.10
11744;DHT22;5929;51.906;7.674;2023-06-14T10:19:18;21.60;63.10
11744;DHT22;5929;51.906;7.674;2023-06-14T10:21:54;21.60;63.70
11744;DHT22;5929;51.906;7.674;2023-06-14T10:24:29;21.80;64.40
11744;DHT22;5929;51.906;7.674;2023-06-14T10:26:58;21.90;63.20
11744;DHT22;5929;51.906;7.674;2023-06-14T10:29:26;22.00;64.20
11744;DHT22;5929;51.906;7.674;2023-06-14T10:31:58;22.20;63.50
11744;DHT22;5929;51.906;7.674;2023-06-14T10:34:26;22.40;63.00
11744;DHT22;5929;51.906;7.674;2023-06-14T10:37:04;22.60;62.60
11744;DHT22;5929;51.906;7.674;2023-06-14T10:39:32;22.80;62.10
11744;DHT22;5929;51.906;7.674;2023-06-14T10:42:02;22.90;61.90
11744;DHT22;5929;51.906;7.674;2023-06-14T10:44:47;22.90;61.20
11744;DHT22;5929;51.906;7.674;2023-06-14T10:47:37;22.90;61.90
11744;DHT22;5929;51.906;7.674;2023-06-14T10:50:08;23.00;62.30
11744;DHT22;5929;51.906;7.674;2023-06-14T10:52:39;23.20;61.30
11744;DHT22;5929;51.906;7.674;2023-06-14T10:55:08;23.40;61.60
11744;DHT22;5929;51.906;7.674;2023-06-14T10:57:41;23.60;62.20
11744;DHT22;5929;51.906;7.674;2023-06-14T11:00:11;23.60;61.60
11744;DHT22;5929;51.906;7.674;2023-06-14T11:05:49;24.20;60.30
11744;DHT22;5929;51.906;7.674;2023-06-14T11:08:40;24.30;60.30
11744;DHT22;5929;51.906;7.674;2023-06-14T11:11:13;24.50;59.90
11744;DHT22;5929;51.906;7.674;2023-06-14T11:13:45;24.50;59.40
11744;DHT22;5929;51.906;7.674;2023-06-14T11:16:14;24.70;59.00
11744;DHT22;5929;51.906;7.674;2023-06-14T11:18:42;25.00;59.20
11744;DHT22;5929;51.906;7.674;2023-06-14T11:21:10;25.40;58.20
11744;DHT22;5929;51.906;7.674;2023-06-14T11:23:37;25.80;57.10
11744;DHT22;5929;51.906;7.674;2023-06-14T11:26:04;26.30;56.30
11744;DHT22;5929;51.906;7.674;2023-06-14T11:28:38;26.90;54.70
11744;DHT22;5929;51.906;7.674;2023-06-14T11:31:06;27.30;55.10
11744;DHT22;5929;51.906;7.674;2023-06-14T11:33:37;27.60;55.10
11744;DHT22;5929;51.906;7.674;2023-06-14T11:36:05;28.20;53.60
11744;DHT22;5929;51.906;7.674;2023-06-14T11:38:35;28.30;52.90
11744;DHT22;5929;51.906;7.674;2023-06-14T11:41:03;28.60;52.30
11744;DHT22;5929;51.906;7.674;2023-06-14T11:43:32;28.00;52.60
11744;DHT22;5929;51.906;7.674;2023-06-14T11:46:00;27.90;53.60
11744;DHT22;5929;51.906;7.674;2023-06-14T11:48:37;27.60;53.40
11744;DHT22;5929;51.906;7.674;2023-06-14T11:51:05;27.90;53.40
11744;DHT22;5929;51.906;7.674;2023-06-14T11:53:32;28.30;52.80
11744;DHT22;5929;51.906;7.674;2023-06-14T11:55:59;28.50;52.30
11744;DHT22;5929;51.906;7.674;2023-06-14T11:58:57;28.10;51.90
11744;DHT22;5929;51.906;7.674;2023-06-14T12:01:17;28.10;52.10
11744;DHT22;5929;51.906;7.674;2023-06-14T12:03:49;28.20;51.20
11744;DHT22;5929;51.906;7.674;2023-06-14T12:06:17;27.60;52.50
11744;DHT22;5929;51.906;7.674;2023-06-14T12:08:55;27.30;52.70
11744;DHT22;5929;51.906;7.674;2023-06-14T12:11:31;27.20;53.30
11744;DHT22;5929;51.906;7.674;2023-06-14T12:13:59;27.60;53.00
11744;DHT22;5929;51.906;7.674;2023-06-14T12:16:30;27.40;52.70
11744;DHT22;5929;51.906;7.674;2023-06-14T12:19:07;28.40;52.70
11744;DHT22;5929;51.906;7.674;2023-06-14T12:21:37;28.10;52.90
11744;DHT22;5929;51.906;7.674;2023-06-14T12:24:06;28.20;52.00
11744;DHT22;5929;51.906;7.674;2023-06-14T12:26:33;28.60;51.10
11744;DHT22;5929;51.906;7.674;2023-06-14T12:29:01;29.00;50.20
11744;DHT22;5929;51.906;7.674;2023-06-14T12:31:28;29.80;49.80
11744;DHT22;5929;51.906;7.674;2023-06-14T12:33:55;30.20;49.50
11744;DHT22;5929;51.906;7.674;2023-06-14T12:36:23;30.10;50.40
11744;DHT22;5929;51.906;7.674;2023-06-14T12:38:50;30.50;49.20
11744;DHT22;5929;51.906;7.674;2023-06-14T12:41:18;29.80;49.90
11744;DHT22;5929;51.906;7.674;2023-06-14T12:43:46;29.00;50.40
11744;DHT22;5929;51.906;7.674;2023-06-14T12:46:13;28.20;51.90
11744;DHT22;5929;51.906;7.674;2023-06-14T12:48:40;27.80;51.50
11744;DHT22;5929;51.906;7.674;2023-06-14T12:51:07;28.20;52.10
11744;DHT22;5929;51.906;7.674;2023-06-14T12:53:35;28.90;51.40
11744;DHT22;5929;51.906;7.674;2023-06-14T12:56:04;29.90;50.20
11744;DHT22;5929;51.906;7.674;2023-06-14T12:58:31;30.30;49.30
11744;DHT22;5929;51.906;7.674;2023-06-14T13:00:58;30.70;48.80
11744;DHT22;5929;51.906;7.674;2023-06-14T13:03:27;31.00;49.00
11744;DHT22;5929;51.906;7.674;2023-06-14T13:05:54;31.40;47.50
11744;DHT22;5929;51.906;7.674;2023-06-14T13:08:21;31.30;48.40
11744;DHT22;5929;51.906;7.674;2023-06-14T13:10:49;30.60;48.00
11744;DHT22;5929;51.906;7.674;2023-06-14T13:13:16;30.70;47.80
11744;DHT22;5929;51.906;7.674;2023-06-14T13:15:43;29.60;48.30
11744;DHT22;5929;51.906;7.674;2023-06-14T13:18:11;28.60;50.00
11744;DHT22;5929;51.906;7.674;2023-06-14T13:20:38;29.10;49.40
11744;DHT22;5929;51.906;7.674;2023-06-14T13:23:05;28.90;50.20
11744;DHT22;5929;51.906;7.674;2023-06-14T13:25:33;29.70;50.00
11744;DHT22;5929;51.906;7.674;2023-06-14T13:28:01;30.30;48.40
11744;DHT22;5929;51.906;7.674;2023-06-14T13:30:28;30.50;48.00
11744;DHT22;5929;51.906;7.674;2023-06-14T13:32:55;30.20;47.60
11744;DHT22;5929;51.906;7.674;2023-06-14T13:35:22;29.60;48.40
11744;DHT22;5929;51.906;7.674;2023-06-14T13:37:49;29.90;49.00
11744;DHT22;5929;51.906;7.674;2023-06-14T13:40:16;29.80;48.70
11744;DHT22;5929;51.906;7.674;2023-06-14T13:42:43;29.90;50.00
11744;DHT22;5929;51.906;7.674;2023-06-14T13:45:12;29.90;50.30
11744;DHT22;5929;51.906;7.674;2023-06-14T13:47:39;29.20;50.40
11744;DHT22;5929;51.906;7.674;2023-06-14T13:50:07;29.80;50.10
11744;DHT22;5929;51.906;7.674;2023-06-14T13:52:37;28.90;49.80
11744;DHT22;5929;51.906;7.674;2023-06-14T13:55:04;28.20;51.90
11744;DHT22;5929;51.906;7.674;2023-06-14T13:57:34;27.60;51.70
11744;DHT22;5929;51.906;7.674;2023-06-14T14:00:01;27.70;51.70
11744;DHT22;5929;51.906;7.674;2023-06-14T14:02:30;27.70;52.20
11744;DHT22;5929;51.906;7.674;2023-06-14T14:04:57;28.30;51.30
11744;DHT22;5929;51.906;7.674;2023-06-14T14:07:23;29.30;50.40
11744;DHT22;5929;51.906;7.674;2023-06-14T14:09:50;29.20;50.20
11744;DHT22;5929;51.906;7.674;2023-06-14T14:12:18;28.70;49.80
11744;DHT22;5929;51.906;7.674;2023-06-14T14:14:45;28.60;51.00
11744;DHT22;5929;51.906;7.674;2023-06-14T14:17:12;29.30;50.00
11744;DHT22;5929;51.906;7.674;2023-06-14T14:19:41;29.50;49.80
11744;DHT22;5929;51.906;7.674;2023-06-14T14:22:07;29.90;48.80
11744;DHT22;5929;51.906;7.674;2023-06-14T14:24:34;30.40;48.80
11744;DHT22;5929;51.906;7.674;2023-06-14T14:27:01;30.50;48.40
11744;DHT22;5929;51.906;7.674;2023-06-14T14:29:28;29.80;48.20
11744;DHT22;5929;51.906;7.674;2023-06-14T14:31:58;29.90;48.80
11744;DHT22;5929;51.906;7.674;2023-06-14T14:34:24;29.90;48.50
11744;DHT22;5929;51.906;7.674;2023-06-14T14:36:54;30.20;48.30
11744;DHT22;5929;51.906;7.674;2023-06-14T14:39:21;29.20;49.20
11744;DHT22;5929;51.906;7.674;2023-06-14T14:41:50;29.20;49.60
11744;DHT22;5929;51.906;7.674;2023-06-14T14:44:16;29.40;49.70
11744;DHT22;5929;51.906;7.674;2023-06-14T14:46:44;29.80;49.10
11744;DHT22;5929;51.906;7.674;2023-06-14T14:49:11;29.00;50.20
11744;DHT22;5929;51.906;7.674;2023-06-14T14:51:38;28.70;50.90
11744;DHT22;5929;51.906;7.674;2023-06-14T14:54:06;29.30;49.80
11744;DHT22;5929;51.906;7.674;2023-06-14T14:56:33;29.40;49.30
11744;DHT22;5929;51.906;7.674;2023-06-14T14:59:03;29.50;49.80
11744;DHT22;5929;51.906;7.674;2023-06-14T15:01:30;28.70;50.50
11744;DHT22;5929;51.906;7.674;2023-06-14T15:03:57;28.80;50.10
11744;DHT22;5929;51.906;7.674;2023-06-14T15:06:24;29.00;50.10
11744;DHT22;5929;51.906;7.674;2023-06-14T15:08:51;28.70;49.90
11744;DHT22;5929;51.906;7.674;2023-06-14T15:11:19;28.20;50.50
11744;DHT22;5929;51.906;7.674;2023-06-14T15:13:47;27.90;51.40
11744;DHT22;5929;51.906;7.674;2023-06-14T15:16:14;28.40;51.80
11744;DHT22;5929;51.906;7.674;2023-06-14T15:18:41;29.10;50.70
11744;DHT22;5929;51.906;7.674;2023-06-14T15:21:10;29.50;50.90
11744;DHT22;5929;51.906;7.674;2023-06-14T15:23:39;30.00;49.30
11744;DHT22;5929;51.906;7.674;2023-06-14T15:26:05;29.20;49.20
11744;DHT22;5929;51.906;7.674;2023-06-14T15:28:34;28.50;50.10
11744;DHT22;5929;51.906;7.674;2023-06-14T15:31:01;28.20;51.20
11744;DHT22;5929;51.906;7.674;2023-06-14T15:33:27;28.30;51.60
11744;DHT22;5929;51.906;7.674;2023-06-14T15:35:56;27.80;52.00
11744;DHT22;5929;51.906;7.674;2023-06-14T15:38:25;28.20;51.70
11744;DHT22;5929;51.906;7.674;2023-06-14T15:40:52;28.30;51.40
11744;DHT22;5929;51.906;7.674;2023-06-14T15:43:19;28.40;50.80
11744;DHT22;5929;51.906;7.674;2023-06-14T15:45:50;29.10;50.90
11744;DHT22;5929;51.906;7.674;2023-06-14T15:48:16;30.10;49.20
11744;DHT22;5929;51.906;7.674;2023-06-14T15:50:43;30.20;49.20
11744;DHT22;5929;51.906;7.674;2023-06-14T15:53:11;30.90;49.00
11744;DHT22;5929;51.906;7.674;2023-06-14T15:55:38;30.70;48.40